sensor_id;sensor_type;location;lat;lon;timestamp;P1;durP1;ratioP1;P2;durP2;ratioP2
32228;SDS011;18717;48.034;11.186;2022-10-28T00:00:47;18.45;;;11.32;;
32228;SDS011;18717;48.034;11.186;2022-10-28T00:03:17;11.90;;;10.95;;
32228;SDS011;18717;48.034;11.186;2022-10-28T00:05:45;17.17;;;12.13;;
32228;SDS011;18717;48.034;11.186;2022-10-28T00:08:12;21.13;;;12.45;;
32228;SDS011;18717;48.034;11.186;2022-10-28T00:10:40;12.65;;;11.45;;
32228;SDS011;18717;48.034;11.186;2022-10-28T00:13:10;13.18;;;12.15;;
32228;SDS011;18717;48.034;11.186;2022-10-28T00:15:38;17.77;;;11.45;;
32228;SDS011;18717;48.034;11.186;2022-10-28T00:18:06;12.77;;;11.88;;
32228;SDS011;18717;48.034;11.186;2022-10-28T00:20:35;15.38;;;11.18;;
32228;SDS011;18717;48.034;11.186;2022-10-28T00:23:03;12.27;;;11.27;;
32228;SDS011;18717;48.034;11.186;2022-10-28T00:25:30;14.27;;;11.63;;
32228;SDS011;18717;48.034;11.186;2022-10-28T00:27:58;15.73;;;11.38;;
32228;SDS011;18717;48.034;11.186;2022-10-28T00:30:26;11.70;;;10.63;;
32228;SDS011;18717;48.034;11.186;2022-10-28T00:32:53;12.38;;;11.10;;
32228;SDS011;18717;48.034;11.186;2022-10-28T00:35:22;11.68;;;10.88;;
32228;SDS011;18717;48.034;11.186;2022-10-28T00:37:52;12.88;;;11.05;;
32228;SDS011;18717;48.034;11.186;2022-10-28T00:40:20;13.77;;;10.13;;
32228;SDS011;18717;48.034;11.186;2022-10-28T00:42:48;11.70;;;10.80;;
32228;SDS011;18717;48.034;11.186;2022-10-28T00:45:17;12.40;;;11.25;;
32228;SDS011;18717;48.034;11.186;2022-10-28T00:47:46;13.77;;;10.25;;
32228;SDS011;18717;48.034;11.186;2022-10-28T00:50:22;11.90;;;10.77;;
32228;SDS011;18717;48.034;11.186;2022-10-28T00:52:57;12.52;;;11.43;;
32228;SDS011;18717;48.034;11.186;2022-10-28T00:55:27;11.57;;;10.75;;
32228;SDS011;18717;48.034;11.186;2022-10-28T00:57:55;12.30;;;11.32;;
32228;SDS011;18717;48.034;11.186;2022-10-28T01:00:24;13.52;;;12.27;;
32228;SDS011;18717;48.034;11.186;2022-10-28T01:02:52;10.88;;;9.98;;
32228;SDS011;18717;48.034;11.186;2022-10-28T01:05:20;11.60;;;10.48;;
32228;SDS011;18717;48.034;11.186;2022-10-28T01:07:49;12.50;;;10.98;;
32228;SDS011;18717;48.034;11.186;2022-10-28T01:10:19;12.80;;;11.65;;
32228;SDS011;18717;48.034;11.186;2022-10-28T01:12:53;15.07;;;11.43;;
32228;SDS011;18717;48.034;11.186;2022-10-28T01:15:28;12.32;;;11.15;;
32228;SDS011;18717;48.034;11.186;2022-10-28T01:18:03;11.73;;;10.88;;
32228;SDS011;18717;48.034;11.186;2022-10-28T01:20:55;11.85;;;10.60;;
32228;SDS011;18717;48.034;11.186;2022-10-28T01:23:34;11.05;;;10.20;;
32228;SDS011;18717;48.034;11.186;2022-10-28T01:29:11;11.60;;;10.23;;
32228;SDS011;18717;48.034;11.186;2022-10-28T01:31:48;12.43;;;11.32;;
32228;SDS011;18717;48.034;11.186;2022-10-28T01:34:18;14.10;;;11.95;;
32228;SDS011;18717;48.034;11.186;2022-10-28T01:36:53;13.57;;;10.27;;
32228;SDS011;18717;48.034;11.186;2022-10-28T01:39:26;11.32;;;10.27;;
32228;SDS011;18717;48.034;11.186;2022-10-28T01:41:58;11.48;;;10.45;;
32228;SDS011;18717;48.034;11.186;2022-10-28T01:44:42;10.75;;;9.88;;
32228;SDS011;18717;48.034;11.186;2022-10-28T01:47:16;13.23;;;11.07;;
32228;SDS011;18717;48.034;11.186;2022-10-28T01:49:47;11.98;;;10.93;;
32228;SDS011;18717;48.034;11.186;2022-10-28T01:52:19;11.80;;;10.63;;
32228;SDS011;18717;48.034;11.186;2022-10-28T01:54:49;11.65;;;10.65;;
32228;SDS011;18717;48.034;11.186;2022-10-28T01:57:18;10.88;;;10.18;;
32228;SDS011;18717;48.034;11.186;2022-10-28T01:59:48;11.13;;;10.18;;
32228;SDS011;18717;48.034;11.186;2022-10-28T02:02:18;11.60;;;10.80;;
32228;SDS011;18717;48.034;11.186;2022-10-28T02:04:45;12.75;;;11.65;;
32228;SDS011;18717;48.034;11.186;2022-10-28T02:07:13;11.13;;;10.15;;
32228;SDS011;18717;48.034;11.186;2022-10-28T02:09:49;11.52;;;10.38;;
32228;SDS011;18717;48.034;11.186;2022-10-28T02:12:25;11.88;;;10.13;;
32228;SDS011;18717;48.034;11.186;2022-10-28T02:15:01;11.07;;;10.20;;
32228;SDS011;18717;48.034;11.186;2022-10-28T02:17:41;11.30;;;10.18;;
32228;SDS011;18717;48.034;11.186;2022-10-28T02:20:16;10.60;;;9.70;;
32228;SDS011;18717;48.034;11.186;2022-10-28T02:22:48;11.75;;;10.75;;
32228;SDS011;18717;48.034;11.186;2022-10-28T02:25:18;12.15;;;11.02;;
32228;SDS011;18717;48.034;11.186;2022-10-28T02:27:48;11.75;;;10.38;;
32228;SDS011;18717;48.034;11.186;2022-10-28T02:30:21;13.57;;;10.88;;
32228;SDS011;18717;48.034;11.186;2022-10-28T02:32:52;12.85;;;10.40;;
32228;SDS011;18717;48.034;11.186;2022-10-28T02:35:24;13.85;;;10.82;;
32228;SDS011;18717;48.034;11.186;2022-10-28T02:37:54;12.35;;;11.35;;
32228;SDS011;18717;48.034;11.186;2022-10-28T02:40:23;11.68;;;10.50;;
32228;SDS011;18717;48.034;11.186;2022-10-28T02:42:53;11.38;;;10.02;;
32228;SDS011;18717;48.034;11.186;2022-10-28T02:45:24;12.00;;;9.57;;
32228;SDS011;18717;48.034;11.186;2022-10-28T02:47:55;10.63;;;9.88;;
32228;SDS011;18717;48.034;11.186;2022-10-28T02:50:25;10.15;;;9.25;;
32228;SDS011;18717;48.034;11.186;2022-10-28T02:52:58;10.85;;;10.05;;
32228;SDS011;18717;48.034;11.186;2022-10-28T02:55:28;11.10;;;9.95;;
32228;SDS011;18717;48.034;11.186;2022-10-28T02:57:59;14.05;;;11.70;;
32228;SDS011;18717;48.034;11.186;2022-10-28T03:00:26;10.25;;;9.35;;
32228;SDS011;18717;48.034;11.186;2022-10-28T03:02:55;11.02;;;10.13;;
32228;SDS011;18717;48.034;11.186;2022-10-28T03:05:23;11.13;;;10.10;;
32228;SDS011;18717;48.034;11.186;2022-10-28T03:07:51;10.98;;;10.07;;
32228;SDS011;18717;48.034;11.186;2022-10-28T03:10:19;10.35;;;9.52;;
32228;SDS011;18717;48.034;11.186;2022-10-28T03:12:47;13.50;;;10.32;;
32228;SDS011;18717;48.034;11.186;2022-10-28T03:15:14;10.93;;;10.05;;
32228;SDS011;18717;48.034;11.186;2022-10-28T03:17:42;11.13;;;10.30;;
32228;SDS011;18717;48.034;11.186;2022-10-28T03:20:11;11.07;;;10.25;;
32228;SDS011;18717;48.034;11.186;2022-10-28T03:22:41;10.90;;;10.00;;
32228;SDS011;18717;48.034;11.186;2022-10-28T03:25:09;10.55;;;9.63;;
32228;SDS011;18717;48.034;11.186;2022-10-28T03:27:38;11.63;;;10.80;;
32228;SDS011;18717;48.034;11.186;2022-10-28T03:30:06;10.95;;;10.05;;
32228;SDS011;18717;48.034;11.186;2022-10-28T03:32:34;11.73;;;10.70;;
32228;SDS011;18717;48.034;11.186;2022-10-28T03:35:02;10.93;;;10.00;;
32228;SDS011;18717;48.034;11.186;2022-10-28T03:37:32;11.60;;;10.57;;
32228;SDS011;18717;48.034;11.186;2022-10-28T03:40:00;11.30;;;10.30;;
32228;SDS011;18717;48.034;11.186;2022-10-28T03:42:28;12.20;;;10.35;;
32228;SDS011;18717;48.034;11.186;2022-10-28T03:44:55;10.85;;;9.95;;
32228;SDS011;18717;48.034;11.186;2022-10-28T03:47:23;10.95;;;9.88;;
32228;SDS011;18717;48.034;11.186;2022-10-28T03:49:51;11.88;;;10.77;;
32228;SDS011;18717;48.034;11.186;2022-10-28T03:52:18;11.15;;;10.07;;
32228;SDS011;18717;48.034;11.186;2022-10-28T03:54:47;10.77;;;10.18;;
32228;SDS011;18717;48.034;11.186;2022-10-28T03:57:15;11.25;;;10.27;;
32228;SDS011;18717;48.034;11.186;2022-10-28T03:59:43;10.63;;;9.85;;
32228;SDS011;18717;48.034;11.186;2022-10-28T04:02:10;11.43;;;10.73;;
32228;SDS011;18717;48.034;11.186;2022-10-28T04:04:40;10.75;;;9.95;;
32228;SDS011;18717;48.034;11.186;2022-10-28T04:07:08;11.40;;;10.25;;
32228;SDS011;18717;48.034;11.186;2022-10-28T04:09:36;10.02;;;9.20;;
32228;SDS011;18717;48.034;11.186;2022-10-28T04:12:05;11.15;;;10.13;;
32228;SDS011;18717;48.034;11.186;2022-10-28T04:14:33;11.15;;;10.25;;
32228;SDS011;18717;48.034;11.186;2022-10-28T04:17:01;11.23;;;10.30;;
32228;SDS011;18717;48.034;11.186;2022-10-28T04:19:28;11.02;;;9.90;;
32228;SDS011;18717;48.034;11.186;2022-10-28T04:21:56;24.55;;;13.45;;
32228;SDS011;18717;48.034;11.186;2022-10-28T04:24:24;10.88;;;9.80;;
32228;SDS011;18717;48.034;11.186;2022-10-28T04:26:51;11.07;;;10.13;;
32228;SDS011;18717;48.034;11.186;2022-10-28T04:29:20;10.93;;;10.02;;
32228;SDS011;18717;48.034;11.186;2022-10-28T04:31:48;11.05;;;10.05;;
32228;SDS011;18717;48.034;11.186;2022-10-28T04:34:17;10.25;;;9.57;;
32228;SDS011;18717;48.034;11.186;2022-10-28T04:36:45;10.93;;;9.77;;
32228;SDS011;18717;48.034;11.186;2022-10-28T04:39:13;9.95;;;9.05;;
32228;SDS011;18717;48.034;11.186;2022-10-28T04:41:40;11.32;;;10.23;;
32228;SDS011;18717;48.034;11.186;2022-10-28T04:44:08;10.18;;;9.35;;
32228;SDS011;18717;48.034;11.186;2022-10-28T04:46:37;10.60;;;9.90;;
32228;SDS011;18717;48.034;11.186;2022-10-28T04:49:05;11.73;;;10.82;;
32228;SDS011;18717;48.034;11.186;2022-10-28T04:51:32;10.35;;;9.65;;
32228;SDS011;18717;48.034;11.186;2022-10-28T04:54:00;10.65;;;9.95;;
32228;SDS011;18717;48.034;11.186;2022-10-28T04:56:28;11.73;;;10.48;;
32228;SDS011;18717;48.034;11.186;2022-10-28T04:58:58;9.80;;;9.07;;
32228;SDS011;18717;48.034;11.186;2022-10-28T05:01:26;10.23;;;9.43;;
32228;SDS011;18717;48.034;11.186;2022-10-28T05:03:55;10.57;;;9.85;;
32228;SDS011;18717;48.034;11.186;2022-10-28T05:06:23;11.25;;;9.32;;
32228;SDS011;18717;48.034;11.186;2022-10-28T05:08:51;10.00;;;9.27;;
32228;SDS011;18717;48.034;11.186;2022-10-28T05:11:18;10.57;;;9.77;;
32228;SDS011;18717;48.034;11.186;2022-10-28T05:13:46;12.05;;;9.30;;
32228;SDS011;18717;48.034;11.186;2022-10-28T05:16:14;11.90;;;9.32;;
32228;SDS011;18717;48.034;11.186;2022-10-28T05:18:42;12.80;;;9.52;;
32228;SDS011;18717;48.034;11.186;2022-10-28T05:21:11;10.52;;;9.82;;
32228;SDS011;18717;48.034;11.186;2022-10-28T05:23:38;13.13;;;9.25;;
32228;SDS011;18717;48.034;11.186;2022-10-28T05:26:06;10.65;;;9.10;;
32228;SDS011;18717;48.034;11.186;2022-10-28T05:28:34;10.52;;;9.63;;
32228;SDS011;18717;48.034;11.186;2022-10-28T05:31:02;10.27;;;9.43;;
32228;SDS011;18717;48.034;11.186;2022-10-28T05:33:29;10.63;;;9.63;;
32228;SDS011;18717;48.034;11.186;2022-10-28T05:35:58;10.48;;;9.50;;
32228;SDS011;18717;48.034;11.186;2022-10-28T05:38:28;10.23;;;9.07;;
32228;SDS011;18717;48.034;11.186;2022-10-28T05:40:55;10.73;;;9.30;;
32228;SDS011;18717;48.034;11.186;2022-10-28T05:43:23;10.15;;;9.15;;
32228;SDS011;18717;48.034;11.186;2022-10-28T05:45:51;10.00;;;9.40;;
32228;SDS011;18717;48.034;11.186;2022-10-28T05:48:19;10.43;;;9.73;;
32228;SDS011;18717;48.034;11.186;2022-10-28T05:50:47;11.15;;;10.15;;
32228;SDS011;18717;48.034;11.186;2022-10-28T05:53:15;14.85;;;10.45;;
32228;SDS011;18717;48.034;11.186;2022-10-28T05:55:44;13.00;;;10.90;;
32228;SDS011;18717;48.034;11.186;2022-10-28T05:58:13;11.35;;;10.27;;
32228;SDS011;18717;48.034;11.186;2022-10-28T06:00:41;16.23;;;10.57;;
32228;SDS011;18717;48.034;11.186;2022-10-28T06:03:09;14.00;;;10.10;;
32228;SDS011;18717;48.034;11.186;2022-10-28T06:05:38;15.15;;;10.75;;
32228;SDS011;18717;48.034;11.186;2022-10-28T06:08:09;12.57;;;11.48;;
32228;SDS011;18717;48.034;11.186;2022-10-28T06:10:37;13.38;;;12.23;;
32228;SDS011;18717;48.034;11.186;2022-10-28T06:13:06;13.27;;;11.35;;
32228;SDS011;18717;48.034;11.186;2022-10-28T06:15:34;12.40;;;11.23;;
32228;SDS011;18717;48.034;11.186;2022-10-28T06:18:02;16.10;;;10.98;;
32228;SDS011;18717;48.034;11.186;2022-10-28T06:20:30;12.35;;;10.73;;
32228;SDS011;18717;48.034;11.186;2022-10-28T06:22:58;11.77;;;10.57;;
32228;SDS011;18717;48.034;11.186;2022-10-28T06:25:26;11.07;;;10.10;;
32228;SDS011;18717;48.034;11.186;2022-10-28T06:27:53;15.30;;;10.38;;
32228;SDS011;18717;48.034;11.186;2022-10-28T06:30:24;19.15;;;11.00;;
32228;SDS011;18717;48.034;11.186;2022-10-28T06:32:54;11.15;;;10.07;;
32228;SDS011;18717;48.034;11.186;2022-10-28T06:35:23;10.35;;;9.73;;
32228;SDS011;18717;48.034;11.186;2022-10-28T06:37:52;11.05;;;10.13;;
32228;SDS011;18717;48.034;11.186;2022-10-28T06:40:21;10.75;;;9.65;;
32228;SDS011;18717;48.034;11.186;2022-10-28T06:42:55;10.00;;;9.25;;
32228;SDS011;18717;48.034;11.186;2022-10-28T06:45:25;11.25;;;10.20;;
32228;SDS011;18717;48.034;11.186;2022-10-28T06:47:56;11.82;;;10.27;;
32228;SDS011;18717;48.034;11.186;2022-10-28T06:50:24;11.50;;;10.43;;
32228;SDS011;18717;48.034;11.186;2022-10-28T06:52:53;11.27;;;10.38;;
32228;SDS011;18717;48.034;11.186;2022-10-28T06:55:22;9.98;;;9.18;;
32228;SDS011;18717;48.034;11.186;2022-10-28T06:57:50;11.23;;;9.95;;
32228;SDS011;18717;48.034;11.186;2022-10-28T07:00:18;10.63;;;9.80;;
32228;SDS011;18717;48.034;11.186;2022-10-28T07:02:50;11.57;;;10.43;;
32228;SDS011;18717;48.034;11.186;2022-10-28T07:05:19;10.30;;;9.70;;
32228;SDS011;18717;48.034;11.186;2022-10-28T07:07:47;12.95;;;10.73;;
32228;SDS011;18717;48.034;11.186;2022-10-28T07:10:15;11.00;;;9.93;;
32228;SDS011;18717;48.034;11.186;2022-10-28T07:12:42;10.90;;;9.75;;
32228;SDS011;18717;48.034;11.186;2022-10-28T07:15:10;12.32;;;11.23;;
32228;SDS011;18717;48.034;11.186;2022-10-28T07:17:38;15.70;;;12.18;;
32228;SDS011;18717;48.034;11.186;2022-10-28T07:20:08;12.02;;;10.93;;
32228;SDS011;18717;48.034;11.186;2022-10-28T07:22:36;12.98;;;11.63;;
32228;SDS011;18717;48.034;11.186;2022-10-28T07:25:05;10.85;;;10.02;;
32228;SDS011;18717;48.034;11.186;2022-10-28T07:27:33;11.27;;;9.80;;
32228;SDS011;18717;48.034;11.186;2022-10-28T07:30:01;13.60;;;10.52;;
32228;SDS011;18717;48.034;11.186;2022-10-28T07:32:30;10.88;;;10.13;;
32228;SDS011;18717;48.034;11.186;2022-10-28T07:34:58;10.85;;;10.05;;
32228;SDS011;18717;48.034;11.186;2022-10-28T07:37:27;11.32;;;9.95;;
32228;SDS011;18717;48.034;11.186;2022-10-28T07:39:55;11.98;;;10.68;;
32228;SDS011;18717;48.034;11.186;2022-10-28T07:42:23;13.20;;;12.10;;
32228;SDS011;18717;48.034;11.186;2022-10-28T07:44:51;10.45;;;9.63;;
32228;SDS011;18717;48.034;11.186;2022-10-28T07:47:18;11.00;;;10.07;;
32228;SDS011;18717;48.034;11.186;2022-10-28T07:49:47;10.73;;;9.90;;
32228;SDS011;18717;48.034;11.186;2022-10-28T07:52:15;11.45;;;10.65;;
32228;SDS011;18717;48.034;11.186;2022-10-28T07:54:44;14.85;;;10.40;;
32228;SDS011;18717;48.034;11.186;2022-10-28T07:57:12;10.93;;;10.07;;
32228;SDS011;18717;48.034;11.186;2022-10-28T07:59:39;10.80;;;9.95;;
32228;SDS011;18717;48.034;11.186;2022-10-28T08:02:08;13.05;;;11.70;;
32228;SDS011;18717;48.034;11.186;2022-10-28T08:04:36;11.07;;;10.05;;
32228;SDS011;18717;48.034;11.186;2022-10-28T08:07:04;20.05;;;11.50;;
32228;SDS011;18717;48.034;11.186;2022-10-28T08:09:32;10.88;;;10.18;;
32228;SDS011;18717;48.034;11.186;2022-10-28T08:12:01;12.05;;;10.80;;
32228;SDS011;18717;48.034;11.186;2022-10-28T08:14:29;12.63;;;11.63;;
32228;SDS011;18717;48.034;11.186;2022-10-28T08:16:57;11.98;;;11.02;;
32228;SDS011;18717;48.034;11.186;2022-10-28T08:19:25;12.35;;;10.60;;
32228;SDS011;18717;48.034;11.186;2022-10-28T08:21:53;12.20;;;10.30;;
32228;SDS011;18717;48.034;11.186;2022-10-28T08:24:20;12.32;;;11.48;;
32228;SDS011;18717;48.034;11.186;2022-10-28T08:26:48;13.27;;;10.70;;
32228;SDS011;18717;48.034;11.186;2022-10-28T08:29:18;12.68;;;11.60;;
32228;SDS011;18717;48.034;11.186;2022-10-28T08:31:45;12.05;;;11.15;;
32228;SDS011;18717;48.034;11.186;2022-10-28T08:34:13;11.13;;;10.10;;
32228;SDS011;18717;48.034;11.186;2022-10-28T08:36:41;12.45;;;11.38;;
32228;SDS011;18717;48.034;11.186;2022-10-28T08:39:09;11.30;;;10.05;;
32228;SDS011;18717;48.034;11.186;2022-10-28T08:41:37;11.77;;;10.77;;
32228;SDS011;18717;48.034;11.186;2022-10-28T08:44:19;11.00;;;10.20;;
32228;SDS011;18717;48.034;11.186;2022-10-28T08:47:00;12.95;;;11.65;;
32228;SDS011;18717;48.034;11.186;2022-10-28T08:49:36;12.25;;;11.13;;
32228;SDS011;18717;48.034;11.186;2022-10-28T08:52:13;12.25;;;10.82;;
32228;SDS011;18717;48.034;11.186;2022-10-28T08:54:49;11.43;;;10.55;;
32228;SDS011;18717;48.034;11.186;2022-10-28T08:57:19;11.52;;;10.82;;
32228;SDS011;18717;48.034;11.186;2022-10-28T08:59:50;11.90;;;10.95;;
32228;SDS011;18717;48.034;11.186;2022-10-28T09:02:19;11.82;;;10.77;;
32228;SDS011;18717;48.034;11.186;2022-10-28T09:04:50;12.00;;;11.10;;
32228;SDS011;18717;48.034;11.186;2022-10-28T09:07:20;14.10;;;13.00;;
32228;SDS011;18717;48.034;11.186;2022-10-28T09:09:48;11.43;;;10.68;;
32228;SDS011;18717;48.034;11.186;2022-10-28T09:12:20;12.45;;;11.60;;
32228;SDS011;18717;48.034;11.186;2022-10-28T09:14:59;11.68;;;10.85;;
32228;SDS011;18717;48.034;11.186;2022-10-28T09:17:35;11.60;;;10.50;;
32228;SDS011;18717;48.034;11.186;2022-10-28T09:20:11;11.73;;;10.45;;
32228;SDS011;18717;48.034;11.186;2022-10-28T09:22:45;12.32;;;11.43;;
32228;SDS011;18717;48.034;11.186;2022-10-28T09:25:20;12.38;;;11.48;;
32228;SDS011;18717;48.034;11.186;2022-10-28T09:27:56;12.35;;;11.30;;
32228;SDS011;18717;48.034;11.186;2022-10-28T09:30:50;13.25;;;11.95;;
32228;SDS011;18717;48.034;11.186;2022-10-28T09:33:41;14.23;;;12.38;;
32228;SDS011;18717;48.034;11.186;2022-10-28T09:36:18;12.18;;;11.20;;
32228;SDS011;18717;48.034;11.186;2022-10-28T09:38:49;15.98;;;11.93;;
32228;SDS011;18717;48.034;11.186;2022-10-28T09:41:19;12.65;;;11.15;;
32228;SDS011;18717;48.034;11.186;2022-10-28T09:43:49;12.90;;;11.70;;
32228;SDS011;18717;48.034;11.186;2022-10-28T09:46:21;12.00;;;11.20;;
32228;SDS011;18717;48.034;11.186;2022-10-28T09:48:51;12.52;;;11.65;;
32228;SDS011;18717;48.034;11.186;2022-10-28T09:51:24;12.38;;;11.50;;
32228;SDS011;18717;48.034;11.186;2022-10-28T09:53:55;11.32;;;10.57;;
32228;SDS011;18717;48.034;11.186;2022-10-28T09:56:24;13.05;;;11.50;;
32228;SDS011;18717;48.034;11.186;2022-10-28T09:58:54;11.88;;;11.23;;
32228;SDS011;18717;48.034;11.186;2022-10-28T10:01:25;13.02;;;11.95;;
32228;SDS011;18717;48.034;11.186;2022-10-28T10:03:55;13.73;;;12.35;;
32228;SDS011;18717;48.034;11.186;2022-10-28T10:06:24;13.73;;;12.60;;
32228;SDS011;18717;48.034;11.186;2022-10-28T10:08:54;12.23;;;11.18;;
32228;SDS011;18717;48.034;11.186;2022-10-28T10:11:25;14.40;;;12.88;;
32228;SDS011;18717;48.034;11.186;2022-10-28T10:13:55;13.10;;;11.95;;
32228;SDS011;18717;48.034;11.186;2022-10-28T10:16:28;12.45;;;11.45;;
32228;SDS011;18717;48.034;11.186;2022-10-28T10:19:01;13.30;;;11.95;;
32228;SDS011;18717;48.034;11.186;2022-10-28T10:21:39;13.30;;;12.13;;
32228;SDS011;18717;48.034;11.186;2022-10-28T10:24:20;12.38;;;11.52;;
32228;SDS011;18717;48.034;11.186;2022-10-28T10:26:49;12.38;;;11.40;;
32228;SDS011;18717;48.034;11.186;2022-10-28T10:29:17;12.85;;;11.95;;
32228;SDS011;18717;48.034;11.186;2022-10-28T10:31:47;13.82;;;12.63;;
32228;SDS011;18717;48.034;11.186;2022-10-28T10:34:19;13.10;;;12.18;;
32228;SDS011;18717;48.034;11.186;2022-10-28T10:36:49;13.13;;;12.23;;
32228;SDS011;18717;48.034;11.186;2022-10-28T10:39:19;12.90;;;11.82;;
32228;SDS011;18717;48.034;11.186;2022-10-28T10:41:51;15.82;;;14.13;;
32228;SDS011;18717;48.034;11.186;2022-10-28T10:44:29;13.13;;;12.23;;
32228;SDS011;18717;48.034;11.186;2022-10-28T10:49:49;12.40;;;11.82;;
32228;SDS011;18717;48.034;11.186;2022-10-28T10:52:20;12.73;;;11.73;;
32228;SDS011;18717;48.034;11.186;2022-10-28T10:54:58;13.13;;;12.13;;
32228;SDS011;18717;48.034;11.186;2022-10-28T10:57:28;12.45;;;11.73;;
32228;SDS011;18717;48.034;11.186;2022-10-28T10:59:57;13.25;;;12.38;;
32228;SDS011;18717;48.034;11.186;2022-10-28T11:02:27;13.27;;;12.20;;
32228;SDS011;18717;48.034;11.186;2022-10-28T11:05:01;13.27;;;12.32;;
32228;SDS011;18717;48.034;11.186;2022-10-28T11:07:30;13.75;;;12.50;;
32228;SDS011;18717;48.034;11.186;2022-10-28T11:09:58;12.65;;;11.55;;
32228;SDS011;18717;48.034;11.186;2022-10-28T11:12:27;13.40;;;12.55;;
32228;SDS011;18717;48.034;11.186;2022-10-28T11:14:58;14.75;;;13.75;;
32228;SDS011;18717;48.034;11.186;2022-10-28T11:17:28;14.98;;;13.73;;
32228;SDS011;18717;48.034;11.186;2022-10-28T11:19:58;14.00;;;12.95;;
32228;SDS011;18717;48.034;11.186;2022-10-28T11:22:38;13.80;;;13.15;;
32228;SDS011;18717;48.034;11.186;2022-10-28T11:25:31;13.63;;;12.55;;
32228;SDS011;18717;48.034;11.186;2022-10-28T11:28:06;13.18;;;12.30;;
32228;SDS011;18717;48.034;11.186;2022-10-28T11:30:57;13.48;;;12.73;;
32228;SDS011;18717;48.034;11.186;2022-10-28T11:33:32;13.73;;;12.68;;
32228;SDS011;18717;48.034;11.186;2022-10-28T11:36:09;14.13;;;13.13;;
32228;SDS011;18717;48.034;11.186;2022-10-28T11:38:46;14.30;;;13.40;;
32228;SDS011;18717;48.034;11.186;2022-10-28T11:41:23;13.52;;;12.65;;
32228;SDS011;18717;48.034;11.186;2022-10-28T11:43:56;13.15;;;12.27;;
32228;SDS011;18717;48.034;11.186;2022-10-28T11:46:37;13.73;;;12.32;;
32228;SDS011;18717;48.034;11.186;2022-10-28T11:52:06;21.60;;;19.50;;
32228;SDS011;18717;48.034;11.186;2022-10-28T11:54:44;25.92;;;21.15;;
32228;SDS011;18717;48.034;11.186;2022-10-28T11:57:22;19.63;;;17.90;;
32228;SDS011;18717;48.034;11.186;2022-10-28T11:59:59;16.25;;;14.90;;
32228;SDS011;18717;48.034;11.186;2022-10-28T12:02:40;14.18;;;12.73;;
32228;SDS011;18717;48.034;11.186;2022-10-28T12:05:21;13.98;;;12.80;;
32228;SDS011;18717;48.034;11.186;2022-10-28T12:10:34;13.00;;;12.20;;
32228;SDS011;18717;48.034;11.186;2022-10-28T12:13:09;13.93;;;12.90;;
32228;SDS011;18717;48.034;11.186;2022-10-28T12:15:44;14.05;;;13.07;;
32228;SDS011;18717;48.034;11.186;2022-10-28T12:18:18;13.25;;;12.18;;
32228;SDS011;18717;48.034;11.186;2022-10-28T12:20:51;12.60;;;11.88;;
32228;SDS011;18717;48.034;11.186;2022-10-28T12:23:24;13.52;;;12.68;;
32228;SDS011;18717;48.034;11.186;2022-10-28T12:25:54;13.00;;;12.27;;
32228;SDS011;18717;48.034;11.186;2022-10-28T12:28:24;12.73;;;12.00;;
32228;SDS011;18717;48.034;11.186;2022-10-28T12:30:54;13.20;;;12.38;;
32228;SDS011;18717;48.034;11.186;2022-10-28T12:33:24;13.80;;;12.80;;
32228;SDS011;18717;48.034;11.186;2022-10-28T12:35:57;13.40;;;12.50;;
32228;SDS011;18717;48.034;11.186;2022-10-28T12:38:46;13.35;;;12.35;;
32228;SDS011;18717;48.034;11.186;2022-10-28T12:41:20;13.73;;;13.02;;
32228;SDS011;18717;48.034;11.186;2022-10-28T12:43:50;13.25;;;12.43;;
32228;SDS011;18717;48.034;11.186;2022-10-28T12:46:21;12.90;;;12.00;;
32228;SDS011;18717;48.034;11.186;2022-10-28T12:48:53;13.30;;;12.52;;
32228;SDS011;18717;48.034;11.186;2022-10-28T12:51:25;14.02;;;13.15;;
32228;SDS011;18717;48.034;11.186;2022-10-28T12:53:57;13.27;;;12.25;;
32228;SDS011;18717;48.034;11.186;2022-10-28T12:56:29;13.33;;;12.37;;
32228;SDS011;18717;48.034;11.186;2022-10-28T12:58:59;13.83;;;12.83;;
32228;SDS011;18717;48.034;11.186;2022-10-28T13:01:31;13.35;;;12.38;;
32228;SDS011;18717;48.034;11.186;2022-10-28T13:04:00;15.15;;;14.13;;
32228;SDS011;18717;48.034;11.186;2022-10-28T13:07:15;13.93;;;12.98;;
32228;SDS011;18717;48.034;11.186;2022-10-28T13:10:04;13.45;;;12.30;;
32228;SDS011;18717;48.034;11.186;2022-10-28T13:15:59;13.27;;;12.45;;
32228;SDS011;18717;48.034;11.186;2022-10-28T13:21:46;14.25;;;12.98;;
32228;SDS011;18717;48.034;11.186;2022-10-28T13:24:29;12.63;;;11.93;;
32228;SDS011;18717;48.034;11.186;2022-10-28T13:27:05;12.57;;;11.90;;
32228;SDS011;18717;48.034;11.186;2022-10-28T13:29:41;13.20;;;12.27;;
32228;SDS011;18717;48.034;11.186;2022-10-28T13:35:11;13.93;;;13.07;;
32228;SDS011;18717;48.034;11.186;2022-10-28T13:37:45;14.93;;;13.95;;
32228;SDS011;18717;48.034;11.186;2022-10-28T13:40:22;13.63;;;12.73;;
32228;SDS011;18717;48.034;11.186;2022-10-28T13:43:16;13.80;;;13.00;;
32228;SDS011;18717;48.034;11.186;2022-10-28T13:45:48;13.82;;;13.13;;
32228;SDS011;18717;48.034;11.186;2022-10-28T13:48:42;12.73;;;12.02;;
32228;SDS011;18717;48.034;11.186;2022-10-28T13:51:30;14.90;;;13.85;;
32228;SDS011;18717;48.034;11.186;2022-10-28T13:54:14;13.20;;;12.27;;
32228;SDS011;18717;48.034;11.186;2022-10-28T13:56:52;13.45;;;12.50;;
32228;SDS011;18717;48.034;11.186;2022-10-28T13:59:25;14.80;;;13.55;;
32228;SDS011;18717;48.034;11.186;2022-10-28T14:01:55;13.95;;;12.93;;
32228;SDS011;18717;48.034;11.186;2022-10-28T14:04:52;13.65;;;12.38;;
32228;SDS011;18717;48.034;11.186;2022-10-28T14:07:21;14.27;;;12.90;;
32228;SDS011;18717;48.034;11.186;2022-10-28T14:09:53;14.48;;;13.20;;
32228;SDS011;18717;48.034;11.186;2022-10-28T14:12:26;13.73;;;12.93;;
32228;SDS011;18717;48.034;11.186;2022-10-28T14:15:00;13.00;;;12.00;;
32228;SDS011;18717;48.034;11.186;2022-10-28T14:17:40;13.18;;;12.23;;
32228;SDS011;18717;48.034;11.186;2022-10-28T14:20:23;12.80;;;12.00;;
32228;SDS011;18717;48.034;11.186;2022-10-28T14:22:55;13.18;;;12.57;;
32228;SDS011;18717;48.034;11.186;2022-10-28T14:31:32;13.13;;;12.20;;
32228;SDS011;18717;48.034;11.186;2022-10-28T14:37:18;13.40;;;12.50;;
32228;SDS011;18717;48.034;11.186;2022-10-28T14:40:00;12.57;;;11.68;;
32228;SDS011;18717;48.034;11.186;2022-10-28T14:42:40;12.93;;;12.02;;
32228;SDS011;18717;48.034;11.186;2022-10-28T14:45:25;12.75;;;11.80;;
32228;SDS011;18717;48.034;11.186;2022-10-28T14:50:57;14.68;;;13.48;;
32228;SDS011;18717;48.034;11.186;2022-10-28T14:53:27;14.45;;;13.23;;
32228;SDS011;18717;48.034;11.186;2022-10-28T14:55:57;12.75;;;11.80;;
32228;SDS011;18717;48.034;11.186;2022-10-28T14:58:27;13.32;;;12.40;;
32228;SDS011;18717;48.034;11.186;2022-10-28T15:01:01;14.00;;;12.80;;
32228;SDS011;18717;48.034;11.186;2022-10-28T15:03:47;13.38;;;12.32;;
32228;SDS011;18717;48.034;11.186;2022-10-28T15:06:24;13.13;;;11.85;;
32228;SDS011;18717;48.034;11.186;2022-10-28T15:08:53;14.82;;;13.43;;